Data for 12/30/2013

Time Sea-Level Adjusted Pressure Absolute Pressure Temperature Relative Humidity Dew Point   
(mb) (inHg) (mb) (inHg) (C) (F) (%) (C) (F)
00:05 1019 30.09 849 25.07 -0.1 31.7 57 -7.6 18.4
00:10 1019 30.09 849 25.07 -0.3 31.4 57 -7.7 18.1
00:15 1019 30.09 849 25.07 -0.2 31.6 57 -7.8 18
00:20 1019 30.09 849 25.07 -0.1 31.9 55 -8 17.7
00:25 1019 30.09 849 25.07 0.2 32.3 54 -8 17.7
00:30 1020 30.12 849 25.07 0.3 32.5 54 -7.9 17.8
00:35 1020 30.12 849 25.07 0.4 32.7 54 -7.9 17.8
00:40 1020 30.12 849 25.07 0.4 32.8 54 -7.8 17.9
00:45 1020 30.12 849 25.07 0.3 32.6 56 -7.5 18.6
00:50 1020 30.12 849 25.07 0.2 32.3 57 -7.3 18.8
00:55 1020 30.12 849 25.07 0 32.1 56 -7.8 18
01:00 1019 30.09 849 25.07 0.2 32.4 55 -7.7 18.1
01:05 1019 30.09 849 25.07 0.3 32.6 54 -8 17.7
01:10 1019 30.09 849 25.07 0.6 33 54 -7.8 17.9
01:15 1019 30.09 849 25.07 0.7 33.3 53 -7.8 18
01:20 1019 30.09 849 25.07 0.8 33.4 54 -7.5 18.5
01:25 1019 30.09 849 25.07 0.8 33.4 55 -7.2 19
01:30 1019 30.09 849 25.07 0.7 33.3 56 -7 19.3
01:35 1020 30.12 849 25.07 0.5 33 58 -6.8 19.7
01:40 1020 30.12 849 25.07 0.3 32.6 59 -6.9 19.7
01:45 1020 30.12 849 25.07 -0.1 31.9 59 -7.1 19.3
01:50 1020 30.12 849 25.07 -0.1 31.9 59 -7.2 19
01:55 1020 30.12 849 25.07 0.1 32.2 58 -7.2 19
02:00 1020 30.12 849 25.07 0.1 32.1 58 -7.2 19.1
02:05 1020 30.12 849 25.07 0.1 32.2 58 -7.3 18.9
02:10 1020 30.12 849 25.07 0.2 32.3 58 -7.1 19.3
02:15 1020 30.12 849 25.07 0.1 32.1 58 -7.2 19.1
02:20 1020 30.12 849 25.07 0.1 32.1 59 -7 19.4
02:25 1020 30.12 849 25.07 -0 31.9 59 -7 19.3
02:30 1020 30.12 849 25.07 -0 31.9 60 -7 19.4
02:35 1020 30.12 849 25.07 -0.1 31.9 60 -6.9 19.6
02:40 1020 30.12 849 25.07 -0.1 31.8 60 -7 19.4
02:45 1020 30.12 849 25.07 -0.1 31.8 60 -6.9 19.5
02:50 1020 30.12 849 25.07 -0.2 31.6 60 -7 19.5
02:55 1020 30.12 849 25.07 -0.2 31.6 62 -6.7 19.9
03:00 1020 30.12 849 25.07 -0.3 31.5 62 -6.6 20
03:05 1020 30.12 849 25.07 -0.3 31.5 62 -6.6 20.1
03:10 1020 30.12 849 25.07 -0.2 31.6 62 -6.7 19.9
03:15 1020 30.12 849 25.07 -0.2 31.7 62 -6.6 20.2
03:20 1020 30.12 849 25.07 -0.1 31.8 62 -6.6 20.1
03:25 1020 30.12 849 25.07 -0.1 31.9 62 -6.5 20.3
03:30 1020 30.12 849 25.07 -0 31.9 62 -6.6 20.2
03:35 1020 30.12 849 25.07 -0 31.9 62 -6.5 20.3
03:40 1020 30.12 849 25.07 -0.1 31.8 62 -6.5 20.3
03:45 1020 30.12 849 25.07 -0.2 31.7 63 -6.4 20.5
03:50 1020 30.12 850 25.1 -0.2 31.6 64 -6.3 20.6
03:55 1020 30.12 850 25.1 -0.3 31.4 64 -6.3 20.7
04:00 1020 30.12 850 25.1 -0.4 31.3 64 -6.3 20.7
04:05 1021 30.15 850 25.1 -0.4 31.2 64 -6.4 20.5
04:10 1021 30.15 850 25.1 -0.5 31.1 65 -6.4 20.5
04:15 1021 30.15 850 25.1 -0.5 31.1 64 -6.6 20.2
04:20 1021 30.15 850 25.1 -0.4 31.3 64 -6.5 20.3
04:25 1021 30.15 850 25.1 -0.3 31.4 63 -6.6 20.2
04:30 1021 30.15 850 25.1 -0.3 31.5 63 -6.6 20.2
04:35 1021 30.15 850 25.1 -0.3 31.5 62 -6.7 19.9
04:40 1021 30.15 850 25.1 -0.2 31.7 62 -6.6 20.1
04:45 1021 30.15 850 25.1 -0 31.9 61 -6.7 19.9
04:50 1021 30.15 850 25.1 0.1 32.1 60 -6.8 19.7
04:55 1021 30.15 850 25.1 0.1 32.2 60 -6.7 20
05:00 1021 30.15 850 25.1 0.1 32.3 60 -6.7 19.9
05:05 1021 30.15 850 25.1 0.2 32.4 59 -6.8 19.8
05:10 1021 30.15 850 25.1 0.2 32.4 59 -6.9 19.6
05:15 1021 30.15 850 25.1 0.3 32.5 59 -6.8 19.7
05:20 1021 30.15 850 25.1 0.3 32.5 59 -6.7 19.9
05:25 1021 30.15 850 25.1 0.3 32.5 58 -6.9 19.5
05:30 1021 30.15 850 25.1 0.5 32.9 58 -6.8 19.7
05:35 1021 30.15 850 25.1 0.5 32.9 58 -6.8 19.8
05:40 1021 30.15 850 25.1 0.4 32.8 59 -6.7 19.9
05:45 1021 30.15 850 25.1 0.4 32.7 60 -6.5 20.2
05:50 1021 30.15 850 25.1 0 32.1 60 -6.8 19.8
05:55 1021 30.15 850 25.1 0.1 32.3 60 -6.7 20
06:00 1021 30.15 850 25.1 0.2 32.3 60 -6.7 19.9
06:05 1021 30.15 850 25.1 0.2 32.3 60 -6.7 20
06:10 1021 30.15 850 25.1 0.2 32.3 59 -6.8 19.7
06:15 1021 30.15 850 25.1 0.2 32.3 60 -6.6 20.1
06:20 1021 30.15 850 25.1 0.2 32.4 60 -6.6 20.1
06:25 1021 30.15 850 25.1 0.1 32.2 60 -6.8 19.8
06:30 1021 30.15 850 25.1 0.1 32.1 60 -6.8 19.7
06:35 1021 30.15 850 25.1 0.1 32.1 61 -6.6 20.2
06:40 1021 30.15 850 25.1 -0.1 31.9 61 -6.7 20
06:45 1021 30.15 850 25.1 -0 32 60 -6.9 19.6
06:50 1021 30.15 850 25.1 0.2 32.3 60 -6.8 19.8
06:55 1021 30.15 850 25.1 0.2 32.3 61 -6.6 20.2
07:00 1021 30.15 850 25.1 0.1 32.2 60 -6.8 19.7
07:05 1021 30.15 850 25.1 0.1 32.2 60 -6.8 19.7
07:10 1021 30.15 850 25.1 0.1 32.2 60 -6.7 19.9
07:15 1021 30.15 850 25.1 -0 32 61 -6.7 20
07:20 1021 30.15 850 25.1 -0.1 31.8 62 -6.6 20.1
07:25 1021 30.15 850 25.1 -0.1 31.8 62 -6.6 20.1
07:30 1021 30.15 850 25.1 -0.1 31.8 61 -6.7 19.9
07:35 1021 30.15 850 25.1 -0.1 31.8 61 -6.7 20
07:40 1021 30.15 850 25.1 -0.1 31.8 62 -6.6 20.1
07:45 1021 30.15 850 25.1 -0.1 31.8 61 -6.7 20
07:50 1021 30.15 850 25.1 -0.2 31.7 61 -6.8 19.8
07:55 1021 30.15 850 25.1 -0.2 31.7 61 -6.9 19.7
08:00 1021 30.15 850 25.1 -0.1 31.8 61 -6.8 19.8
08:05 1021 30.15 850 25.1 -0.2 31.6 62 -6.7 19.9
08:10 1021 30.15 850 25.1 -0.3 31.4 63 -6.5 20.3
08:15 1021 30.15 851 25.13 -0.5 31.1 63 -6.7 19.9
08:20 1021 30.15 851 25.13 -0.3 31.4 61 -7 19.5
08:25 1021 30.15 851 25.13 -0.2 31.7 61 -6.9 19.5
08:30 1021 30.15 851 25.13 -0.1 31.9 60 -6.9 19.6
08:35 1021 30.15 851 25.13 0 32 60 -6.8 19.7
08:40 1021 30.15 851 25.13 0 32 60 -6.8 19.7
08:45 1021 30.15 851 25.13 0 32 60 -6.8 19.8
08:50 1021 30.15 851 25.13 0 32 60 -6.9 19.6
08:55 1022 30.18 851 25.13 0.1 32.2 60 -6.7 20
09:00 1022 30.18 851 25.13 0 32.1 61 -6.7 20
09:05 1022 30.18 851 25.13 0 32.1 61 -6.7 20
09:10 1022 30.18 851 25.13 0.1 32.1 61 -6.6 20.2
09:15 1022 30.18 851 25.13 0.1 32.2 60 -6.7 20
09:20 1022 30.18 851 25.13 0.2 32.3 61 -6.6 20.2
09:25 1022 30.18 851 25.13 0.2 32.3 61 -6.6 20.2
09:30 1021 30.15 851 25.13 0.2 32.4 60 -6.6 20.2
09:35 1022 30.18 851 25.13 0.3 32.5 60 -6.6 20.2
09:40 1022 30.18 851 25.13 0.3 32.5 60 -6.6 20.1
09:45 1022 30.18 851 25.13 0.3 32.6 60 -6.5 20.3
09:50 1022 30.18 851 25.13 0.5 32.8 60 -6.4 20.5
09:55 1022 30.18 851 25.13 0.5 33 60 -6.4 20.5
10:00 1022 30.18 851 25.13 0.6 33.1 60 -6.3 20.7
10:05 1022 30.18 851 25.13 0.5 32.9 60 -6.5 20.4
10:10 1022 30.18 851 25.13 0.5 33 60 -6.4 20.5
10:15 1022 30.18 851 25.13 0.6 33 60 -6.4 20.5
10:20 1022 30.18 851 25.13 0.5 33 60 -6.4 20.5
10:25 1022 30.18 851 25.13 0.5 33 60 -6.3 20.7
10:30 1022 30.18 851 25.13 0.6 33 60 -6.4 20.5
10:35 1022 30.18 851 25.13 0.7 33.3 59 -6.4 20.5
10:40 1022 30.18 851 25.13 0.9 33.6 58 -6.4 20.4
10:45 1022 30.18 851 25.13 1.1 33.9 57 -6.5 20.3
10:50 1022 30.18 851 25.13 1.3 34.3 56 -6.4 20.4
10:55 1022 30.18 851 25.13 1.5 34.7 55 -6.5 20.4
11:00 1022 30.18 851 25.13 1.7 35.1 55 -6.4 20.4
11:05 1022 30.18 851 25.13 1.9 35.4 55 -6.3 20.7
11:10 1022 30.18 851 25.13 2 35.6 54 -6.4 20.4
11:15 1022 30.18 851 25.13 2 35.6 53 -6.6 20.1
11:20 1022 30.18 851 25.13 2.6 36.6 51 -6.6 20
11:25 1022 30.18 851 25.13 2.9 37.2 50 -6.6 20.2
11:30 1022 30.18 851 25.13 3.1 37.5 49 -6.5 20.2
11:35 1022 30.18 851 25.13 3.2 37.8 49 -6.4 20.5
11:40 1022 30.18 851 25.13 3.4 38 49 -6.3 20.7
11:45 1022 30.18 851 25.13 3.2 37.8 47 -7 19.3
11:50 1022 30.18 851 25.13 3.4 38.2 46 -7.2 19.1
11:55 1022 30.18 851 25.13 3.9 39 46 -6.8 19.8
12:00 1022 30.18 851 25.13 3.9 39 46 -6.7 20
12:05 1022 30.18 851 25.13 4.1 39.4 46 -6.4 20.4
12:10 1021 30.15 851 25.13 4.3 39.8 44 -6.9 19.6
12:15 1021 30.15 851 25.13 4.5 40.1 44 -6.7 19.9
12:20 1021 30.15 850 25.1 4.7 40.4 44 -6.5 20.3
12:25 1021 30.15 850 25.1 4.5 40 46 -6.3 20.7
12:30 1021 30.15 850 25.1 3.9 39 47 -6.3 20.7
12:35 1021 30.15 850 25.1 4.3 39.8 45 -6.5 20.4
12:40 1021 30.15 850 25.1 4.9 40.8 44 -6.5 20.3
12:45 1021 30.15 850 25.1 5 41.1 43 -6.4 20.5
12:50 1021 30.15 850 25.1 5.3 41.6 42 -6.5 20.3
12:55 1021 30.15 850 25.1 4.6 40.2 47 -5.7 21.7
13:00 1021 30.15 850 25.1 4 39.3 46 -6.6 20.1
13:05 1021 30.15 850 25.1 4.8 40.7 42 -6.9 19.7
13:10 1021 30.15 850 25.1 5.2 41.4 43 -6.3 20.7
13:15 1021 30.15 850 25.1 4.2 39.5 47 -6.2 20.9
13:20 1021 30.15 850 25.1 4.5 40 44 -6.7 19.9
13:25 1021 30.15 850 25.1 4.3 39.7 47 -6.2 20.8
13:30 1021 30.15 850 25.1 5.4 41.7 41 -7 19.4
13:35 1020 30.12 850 25.1 6.2 43.1 40 -6.4 20.5
13:40 1020 30.12 850 25.1 5.5 41.9 40 -6.9 19.5
13:45 1020 30.12 850 25.1 5.7 42.2 42 -6.4 20.5
13:50 1020 30.12 850 25.1 5.3 41.5 45 -5.7 21.7
13:55 1020 30.12 850 25.1 4.9 40.7 43 -6.6 20.2
14:00 1020 30.12 849 25.07 5.2 41.4 43 -6.3 20.6
14:05 1020 30.12 849 25.07 5.5 41.9 41 -6.6 20.2
14:10 1020 30.12 849 25.07 5.6 42.1 41 -6.5 20.3
14:15 1020 30.12 849 25.07 5.5 42 43 -6 21.1
14:20 1020 30.12 849 25.07 5.4 41.6 44 -6 21.2
14:25 1020 30.12 849 25.07 5.1 41.3 44 -6.2 20.9
14:30 1020 30.12 849 25.07 5.3 41.6 42 -6.4 20.4
14:35 1020 30.12 849 25.07 5.2 41.4 45 -5.9 21.4
14:40 1020 30.12 849 25.07 5.3 41.6 44 -5.9 21.4
14:45 1020 30.12 849 25.07 5.2 41.3 44 -6.2 20.8
14:50 1020 30.12 849 25.07 4.5 40.1 45 -6.3 20.7
14:55 1020 30.12 849 25.07 4.3 39.7 47 -6.1 21
15:00 1020 30.12 849 25.07 4 39.2 48 -6.2 20.9
15:05 1020 30.12 849 25.07 4.3 39.7 46 -6.3 20.7
15:10 1020 30.12 849 25.07 4.5 40.1 46 -6 21.1
15:15 1020 30.12 849 25.07 4.6 40.3 46 -6.2 20.9
15:20 1020 30.12 849 25.07 4.6 40.3 45 -6.3 20.6
15:25 1020 30.12 849 25.07 4.4 39.9 46 -6.2 20.8
15:30 1020 30.12 849 25.07 4.8 40.6 45 -6.1 21.1
15:35 1019 30.09 849 25.07 5 41 42 -6.9 19.6
15:40 1019 30.09 849 25.07 4.7 40.4 44 -6.7 19.9
15:45 1019 30.09 849 25.07 4.5 40.1 44 -6.7 19.9
15:50 1019 30.09 849 25.07 4.6 40.3 44 -6.5 20.2
15:55 1019 30.09 849 25.07 4.8 40.6 45 -6.3 20.6
16:00 1019 30.09 849 25.07 4.9 40.8 44 -6.3 20.7
16:05 1019 30.09 849 25.07 4.8 40.6 47 -5.5 22
16:10 1019 30.09 849 25.07 4.7 40.5 48 -5.5 22.1
16:15 1019 30.09 849 25.07 4.4 39.9 50 -5 22.9
16:20 1019 30.09 849 25.07 4.1 39.3 52 -5 23
16:25 1019 30.09 849 25.07 3.6 38.5 52 -5.3 22.4
16:30 1020 30.12 849 25.07 3.6 38.4 52 -5.4 22.3
16:35 1019 30.09 849 25.07 3.5 38.3 52 -5.4 22.3
16:40 1019 30.09 849 25.07 3.5 38.3 51 -5.7 21.8
16:45 1019 30.09 848 25.04 3.4 38.1 52 -5.5 22.2
16:50 1019 30.09 848 25.04 3.5 38.3 51 -5.7 21.7
16:55 1019 30.09 848 25.04 3.5 38.3 52 -5.4 22.3
17:00 1019 30.09 848 25.04 3.5 38.3 53 -5.2 22.6
17:05 1019 30.09 848 25.04 3.3 37.9 52 -5.8 21.6
17:10 1019 30.09 848 25.04 3 37.4 55 -5.1 22.7
17:15 1019 30.09 848 25.04 2.8 37.1 53 -5.8 21.6
17:20 1019 30.09 848 25.04 3 37.4 53 -5.5 22.1
17:25 1019 30.09 848 25.04 3 37.5 54 -5.5 22.2
17:30 1019 30.09 848 25.04 2.8 37 53 -5.8 21.5
17:35 1019 30.09 848 25.04 2.8 37 54 -5.7 21.8
17:40 1019 30.09 848 25.04 2.9 37.2 54 -5.6 22
17:45 1019 30.09 848 25.04 2.8 37.1 55 -5.4 22.3
17:50 1019 30.09 848 25.04 2.9 37.3 53 -5.7 21.7
17:55 1019 30.09 848 25.04 3 37.5 50 -6.3 20.6
18:00 1019 30.09 848 25.04 3.3 38 49 -6.5 20.3
18:05 1019 30.09 848 25.04 3.1 37.6 51 -5.9 21.3
18:10 1019 30.09 848 25.04 2.8 37.1 49 -6.9 19.6
18:15 1019 30.09 848 25.04 2.9 37.2 51 -6.3 20.6
18:20 1019 30.09 848 25.04 2.8 37.1 51 -6.4 20.5
18:25 1019 30.09 848 25.04 2.8 37 51 -6.3 20.7
18:30 1019 30.09 848 25.04 2.5 36.6 52 -6.3 20.6
18:35 1019 30.09 848 25.04 2.5 36.5 52 -6.3 20.7
18:40 1019 30.09 848 25.04 2.6 36.7 49 -7.1 19.2
18:45 1019 30.09 848 25.04 3.2 37.7 48 -6.8 19.8
18:50 1019 30.09 848 25.04 3.3 37.9 48 -6.7 19.9
18:55 1019 30.09 848 25.04 3.3 38 48 -6.5 20.2
19:00 1019 30.09 848 25.04 3.4 38.1 46 -7.1 19.2
19:05 1018 30.06 848 25.04 3.4 38.2 50 -6 21.2
19:10 1018 30.06 848 25.04 3.1 37.6 49 -6.6 20
19:15 1018 30.06 847 25.01 3.3 37.9 46 -7.3 18.9
19:20 1018 30.06 847 25.01 3.6 38.4 45 -7.4 18.7
19:25 1018 30.06 847 25.01 3.9 38.9 44 -7.3 18.8
19:30 1018 30.06 847 25.01 3.9 38.9 44 -7.2 19.1
19:35 1018 30.06 847 25.01 3.9 39 43 -7.5 18.6
19:40 1018 30.06 847 25.01 4.1 39.3 42 -7.7 18.2
19:45 1018 30.06 847 25.01 4.2 39.5 42 -7.5 18.5
19:50 1018 30.06 847 25.01 4.1 39.4 44 -7 19.5
19:55 1017 30.03 847 25.01 3.8 38.8 46 -6.7 19.9
20:00 1017 30.03 847 25.01 4.2 39.5 41 -8 17.6
20:05 1017 30.03 846 24.98 4.7 40.5 44 -6.5 20.3
20:10 1017 30.03 847 25.01 4.4 39.9 41 -7.8 18
20:15 1017 30.03 847 25.01 4.6 40.3 41 -7.5 18.6
20:20 1017 30.03 846 24.98 4.5 40.1 44 -6.7 20
20:25 1017 30.03 846 24.98 4.4 39.8 43 -7.2 19.1
20:30 1017 30.03 846 24.98 4.1 39.4 46 -6.5 20.3
20:35 1017 30.03 846 24.98 3.7 38.7 48 -6.2 20.9
20:40 1017 30.03 846 24.98 3.5 38.4 49 -6.3 20.7
20:45 1017 30.03 846 24.98 3.4 38.2 50 -6.1 21
20:50 1017 30.03 846 24.98 3.5 38.2 49 -6.3 20.7
20:55 1017 30.03 846 24.98 3.7 38.7 47 -6.4 20.4
21:00 1017 30.03 846 24.98 3.8 38.8 48 -6.2 20.9
21:05 1017 30.03 846 24.98 3.8 38.8 48 -6.3 20.7
21:10 1017 30.03 846 24.98 3.8 38.9 48 -6.2 20.8
21:15 1017 30.03 846 24.98 3.9 39.1 48 -6.1 21
21:20 1017 30.03 846 24.98 4 39.2 48 -5.9 21.3
21:25 1017 30.03 846 24.98 4 39.3 49 -5.8 21.5
21:30 1017 30.03 846 24.98 4 39.3 49 -5.9 21.5
21:35 1017 30.03 846 24.98 4.1 39.4 48 -6 21.3
21:40 1017 30.03 846 24.98 4.4 39.9 48 -5.7 21.7
21:45 1017 30.03 846 24.98 4.7 40.4 48 -5.4 22.2
21:50 1017 30.03 846 24.98 4.7 40.5 48 -5.3 22.4
21:55 1017 30.03 846 24.98 4.8 40.7 48 -5.2 22.6
22:00 1016 30 846 24.98 4.9 40.8 49 -4.9 23.2
22:05 1016 30 846 24.98 4.8 40.7 50 -4.7 23.6
22:10 1016 30 846 24.98 4.8 40.7 50 -4.8 23.3
22:15 1016 30 846 24.98 4.7 40.4 52 -4.4 24.1
22:20 1016 30 845 24.95 4.4 39.8 53 -4.3 24.3
22:25 1016 30 845 24.95 4 39.2 55 -4.3 24.3
22:30 1016 30 845 24.95 3.8 38.8 55 -4.4 24.1
22:35 1016 30 845 24.95 3.7 38.7 55 -4.5 23.9
22:40 1016 30 845 24.95 3.8 38.8 54 -4.8 23.4
22:45 1016 30 845 24.95 3.7 38.7 54 -4.6 23.7
22:50 1016 30 845 24.95 3.6 38.4 55 -4.7 23.6
22:55 1016 30 845 24.95 3.6 38.5 55 -4.5 23.9
23:00 1016 30 845 24.95 3.5 38.4 55 -4.6 23.8
23:05 1016 30 845 24.95 3.4 38.1 56 -4.6 23.8
23:10 1016 30 845 24.95 3.4 38.1 56 -4.7 23.6
23:15 1016 30 845 24.95 3.5 38.2 56 -4.6 23.7
23:20 1016 30 845 24.95 3.5 38.4 56 -4.3 24.2
23:25 1016 30 845 24.95 3.6 38.5 54 -4.8 23.4
23:30 1016 30 845 24.95 3.8 38.8 56 -4.2 24.4
23:35 1016 30 845 24.95 3.4 38.2 57 -4.4 24.1
23:40 1016 30 845 24.95 3.3 38 57 -4.3 24.3
23:45 1016 30 845 24.95 3.3 37.9 58 -4.1 24.6
23:50 1016 30 845 24.95 3.3 38 58 -4.1 24.6
23:55 1016 30 845 24.95 3.4 38.1 57 -4.2 24.5
24:00 1016 30 845 24.95 3.5 38.3 58 -4 24.8